sensor_id;sensor_type;location;lat;lon;timestamp;temperature;humidity
54832;DHT22;40730;53.068;6.572;2023-02-10T00:00:20;1.00;99.90
54832;DHT22;40730;53.068;6.572;2023-02-10T00:02:46;0.90;99.90
54832;DHT22;40730;53.068;6.572;2023-02-10T00:05:11;0.90;99.90
54832;DHT22;40730;53.068;6.572;2023-02-10T00:07:37;0.80;99.90
54832;DHT22;40730;53.068;6.572;2023-02-10T00:10:03;0.90;99.90
54832;DHT22;40730;53.068;6.572;2023-02-10T00:12:28;1.00;99.90
54832;DHT22;40730;53.068;6.572;2023-02-10T00:14:54;1.00;99.90
54832;DHT22;40730;53.068;6.572;2023-02-10T00:17:20;1.00;99.90
54832;DHT22;40730;53.068;6.572;2023-02-10T00:19:45;1.00;99.90
54832;DHT22;40730;53.068;6.572;2023-02-10T00:22:11;1.00;99.90
54832;DHT22;40730;53.068;6.572;2023-02-10T00:24:36;1.10;99.90
54832;DHT22;40730;53.068;6.572;2023-02-10T00:27:02;1.00;99.90
54832;DHT22;40730;53.068;6.572;2023-02-10T00:29:28;0.90;99.90
54832;DHT22;40730;53.068;6.572;2023-02-10T00:31:53;0.90;99.90
54832;DHT22;40730;53.068;6.572;2023-02-10T00:34:19;0.90;99.90
54832;DHT22;40730;53.068;6.572;2023-02-10T00:36:45;0.90;99.90
54832;DHT22;40730;53.068;6.572;2023-02-10T00:39:14;0.90;99.90
54832;DHT22;40730;53.068;6.572;2023-02-10T00:41:41;0.90;99.90
54832;DHT22;40730;53.068;6.572;2023-02-10T00:44:06;0.90;99.90
54832;DHT22;40730;53.068;6.572;2023-02-10T00:46:32;0.90;99.90
54832;DHT22;40730;53.068;6.572;2023-02-10T00:48:58;0.90;99.90
54832;DHT22;40730;53.068;6.572;2023-02-10T00:51:24;0.90;99.90
54832;DHT22;40730;53.068;6.572;2023-02-10T00:53:49;0.90;99.90
54832;DHT22;40730;53.068;6.572;2023-02-10T00:56:17;0.90;99.90
54832;DHT22;40730;53.068;6.572;2023-02-10T00:58:43;0.90;99.90
54832;DHT22;40730;53.068;6.572;2023-02-10T01:01:09;0.80;99.90
54832;DHT22;40730;53.068;6.572;2023-02-10T01:03:35;0.80;99.90
54832;DHT22;40730;53.068;6.572;2023-02-10T01:06:01;0.70;99.90
54832;DHT22;40730;53.068;6.572;2023-02-10T01:08:27;0.60;99.90
54832;DHT22;40730;53.068;6.572;2023-02-10T01:11:03;0.60;99.90
54832;DHT22;40730;53.068;6.572;2023-02-10T01:13:30;0.70;99.90
54832;DHT22;40730;53.068;6.572;2023-02-10T01:15:55;0.60;99.90
54832;DHT22;40730;53.068;6.572;2023-02-10T01:18:21;0.70;99.90
54832;DHT22;40730;53.068;6.572;2023-02-10T01:20:47;0.70;99.90
54832;DHT22;40730;53.068;6.572;2023-02-10T01:23:13;0.60;99.90
54832;DHT22;40730;53.068;6.572;2023-02-10T01:25:38;0.70;99.90
54832;DHT22;40730;53.068;6.572;2023-02-10T01:28:05;0.60;99.90
54832;DHT22;40730;53.068;6.572;2023-02-10T01:30:30;0.60;99.90
54832;DHT22;40730;53.068;6.572;2023-02-10T01:32:56;0.70;99.90
54832;DHT22;40730;53.068;6.572;2023-02-10T01:35:22;0.70;99.90
54832;DHT22;40730;53.068;6.572;2023-02-10T01:37:48;0.70;99.90
54832;DHT22;40730;53.068;6.572;2023-02-10T01:40:13;0.80;99.90
54832;DHT22;40730;53.068;6.572;2023-02-10T01:42:39;0.70;99.90
54832;DHT22;40730;53.068;6.572;2023-02-10T01:45:28;0.70;99.90
54832;DHT22;40730;53.068;6.572;2023-02-10T01:47:56;0.70;99.90
54832;DHT22;40730;53.068;6.572;2023-02-10T01:50:26;0.70;99.90
54832;DHT22;40730;53.068;6.572;2023-02-10T01:52:52;0.70;99.90
54832;DHT22;40730;53.068;6.572;2023-02-10T01:55:22;0.70;99.90
54832;DHT22;40730;53.068;6.572;2023-02-10T01:57:49;0.70;99.90
54832;DHT22;40730;53.068;6.572;2023-02-10T02:00:20;0.70;99.90
54832;DHT22;40730;53.068;6.572;2023-02-10T02:02:48;0.70;99.90
54832;DHT22;40730;53.068;6.572;2023-02-10T02:07:47;0.70;99.90
54832;DHT22;40730;53.068;6.572;2023-02-10T02:10:14;0.70;99.90
54832;DHT22;40730;53.068;6.572;2023-02-10T02:12:55;0.70;99.90
54832;DHT22;40730;53.068;6.572;2023-02-10T02:32:21;0.50;99.90
54832;DHT22;40730;53.068;6.572;2023-02-10T02:34:52;0.60;99.90
54832;DHT22;40730;53.068;6.572;2023-02-10T02:37:26;0.60;99.90
54832;DHT22;40730;53.068;6.572;2023-02-10T02:39:54;0.60;99.90
54832;DHT22;40730;53.068;6.572;2023-02-10T02:42:32;0.60;99.90
54832;DHT22;40730;53.068;6.572;2023-02-10T02:45:10;0.60;99.90
54832;DHT22;40730;53.068;6.572;2023-02-10T02:50:22;0.60;99.90
54832;DHT22;40730;53.068;6.572;2023-02-10T02:56:05;0.70;99.90
54832;DHT22;40730;53.068;6.572;2023-02-10T03:01:03;0.70;99.90
54832;DHT22;40730;53.068;6.572;2023-02-10T03:03:35;0.60;99.90
54832;DHT22;40730;53.068;6.572;2023-02-10T03:06:02;0.60;99.90
54832;DHT22;40730;53.068;6.572;2023-02-10T03:08:33;0.50;99.90
54832;DHT22;40730;53.068;6.572;2023-02-10T03:10:59;0.50;99.90
54832;DHT22;40730;53.068;6.572;2023-02-10T03:13:25;0.50;99.90
54832;DHT22;40730;53.068;6.572;2023-02-10T03:15:51;0.40;99.90
54832;DHT22;40730;53.068;6.572;2023-02-10T03:18:16;0.50;99.90
54832;DHT22;40730;53.068;6.572;2023-02-10T03:20:42;0.40;99.90
54832;DHT22;40730;53.068;6.572;2023-02-10T03:23:09;0.40;99.90
54832;DHT22;40730;53.068;6.572;2023-02-10T03:25:35;0.40;99.90
54832;DHT22;40730;53.068;6.572;2023-02-10T03:28:01;0.40;99.90
54832;DHT22;40730;53.068;6.572;2023-02-10T03:30:26;0.40;99.90
54832;DHT22;40730;53.068;6.572;2023-02-10T03:32:52;0.40;99.90
54832;DHT22;40730;53.068;6.572;2023-02-10T03:35:19;0.30;99.90
54832;DHT22;40730;53.068;6.572;2023-02-10T03:37:45;0.30;99.90
54832;DHT22;40730;53.068;6.572;2023-02-10T03:40:11;0.20;99.90
54832;DHT22;40730;53.068;6.572;2023-02-10T03:42:37;0.20;99.90
54832;DHT22;40730;53.068;6.572;2023-02-10T03:45:03;0.20;99.90
54832;DHT22;40730;53.068;6.572;2023-02-10T03:47:29;0.10;99.90
54832;DHT22;40730;53.068;6.572;2023-02-10T03:49:55;0.10;99.90
54832;DHT22;40730;53.068;6.572;2023-02-10T03:52:20;0.10;99.90
54832;DHT22;40730;53.068;6.572;2023-02-10T03:54:46;0.10;99.90
54832;DHT22;40730;53.068;6.572;2023-02-10T03:57:12;0.20;99.90
54832;DHT22;40730;53.068;6.572;2023-02-10T03:59:37;0.20;99.90
54832;DHT22;40730;53.068;6.572;2023-02-10T04:02:03;0.30;99.90
54832;DHT22;40730;53.068;6.572;2023-02-10T04:04:29;0.30;99.90
54832;DHT22;40730;53.068;6.572;2023-02-10T04:06:55;0.30;99.90
54832;DHT22;40730;53.068;6.572;2023-02-10T04:09:21;0.40;99.90
54832;DHT22;40730;53.068;6.572;2023-02-10T04:11:46;0.40;99.90
54832;DHT22;40730;53.068;6.572;2023-02-10T04:14:12;0.40;99.90
54832;DHT22;40730;53.068;6.572;2023-02-10T04:16:38;0.40;99.90
54832;DHT22;40730;53.068;6.572;2023-02-10T04:19:03;0.50;99.90
54832;DHT22;40730;53.068;6.572;2023-02-10T04:21:29;0.60;99.90
54832;DHT22;40730;53.068;6.572;2023-02-10T04:23:54;0.70;99.90
54832;DHT22;40730;53.068;6.572;2023-02-10T04:26:21;0.70;99.90
54832;DHT22;40730;53.068;6.572;2023-02-10T04:28:48;0.70;99.90
54832;DHT22;40730;53.068;6.572;2023-02-10T04:31:14;0.70;99.90
54832;DHT22;40730;53.068;6.572;2023-02-10T04:33:39;0.80;99.90
54832;DHT22;40730;53.068;6.572;2023-02-10T04:36:05;0.80;99.90
54832;DHT22;40730;53.068;6.572;2023-02-10T04:38:31;0.80;99.90
54832;DHT22;40730;53.068;6.572;2023-02-10T04:40:57;0.80;99.90
54832;DHT22;40730;53.068;6.572;2023-02-10T04:43:22;0.80;99.90
54832;DHT22;40730;53.068;6.572;2023-02-10T04:45:48;0.90;99.90
54832;DHT22;40730;53.068;6.572;2023-02-10T04:48:14;0.90;99.90
54832;DHT22;40730;53.068;6.572;2023-02-10T04:50:40;0.90;99.90
54832;DHT22;40730;53.068;6.572;2023-02-10T04:53:06;1.00;99.90
54832;DHT22;40730;53.068;6.572;2023-02-10T04:55:33;1.00;99.90
54832;DHT22;40730;53.068;6.572;2023-02-10T04:57:59;1.00;99.90
54832;DHT22;40730;53.068;6.572;2023-02-10T05:00:25;0.90;99.90
54832;DHT22;40730;53.068;6.572;2023-02-10T05:02:51;0.90;99.90
54832;DHT22;40730;53.068;6.572;2023-02-10T05:05:16;0.90;99.90
54832;DHT22;40730;53.068;6.572;2023-02-10T05:07:42;0.90;99.90
54832;DHT22;40730;53.068;6.572;2023-02-10T05:10:08;0.90;99.90
54832;DHT22;40730;53.068;6.572;2023-02-10T05:12:33;0.90;99.90
54832;DHT22;40730;53.068;6.572;2023-02-10T05:15:00;0.90;99.90
54832;DHT22;40730;53.068;6.572;2023-02-10T05:17:26;0.90;99.90
54832;DHT22;40730;53.068;6.572;2023-02-10T05:19:51;0.90;99.90
54832;DHT22;40730;53.068;6.572;2023-02-10T05:22:17;0.90;99.90
54832;DHT22;40730;53.068;6.572;2023-02-10T05:24:42;0.80;99.90
54832;DHT22;40730;53.068;6.572;2023-02-10T05:27:08;0.80;99.90
54832;DHT22;40730;53.068;6.572;2023-02-10T05:29:34;0.80;99.90
54832;DHT22;40730;53.068;6.572;2023-02-10T05:31:59;0.70;99.90
54832;DHT22;40730;53.068;6.572;2023-02-10T05:34:25;0.80;99.90
54832;DHT22;40730;53.068;6.572;2023-02-10T05:36:52;0.80;99.90
54832;DHT22;40730;53.068;6.572;2023-02-10T05:39:17;0.70;99.90
54832;DHT22;40730;53.068;6.572;2023-02-10T05:41:50;0.70;99.90
54832;DHT22;40730;53.068;6.572;2023-02-10T05:44:16;0.60;99.90
54832;DHT22;40730;53.068;6.572;2023-02-10T05:46:41;0.60;99.90
54832;DHT22;40730;53.068;6.572;2023-02-10T05:49:07;0.60;99.90
54832;DHT22;40730;53.068;6.572;2023-02-10T05:51:32;0.60;99.90
54832;DHT22;40730;53.068;6.572;2023-02-10T05:53:58;0.70;99.90
54832;DHT22;40730;53.068;6.572;2023-02-10T05:56:24;0.70;99.90
54832;DHT22;40730;53.068;6.572;2023-02-10T05:58:49;0.70;99.90
54832;DHT22;40730;53.068;6.572;2023-02-10T06:01:15;0.70;99.90
54832;DHT22;40730;53.068;6.572;2023-02-10T06:03:41;0.70;99.90
54832;DHT22;40730;53.068;6.572;2023-02-10T06:06:07;0.70;99.90
54832;DHT22;40730;53.068;6.572;2023-02-10T06:08:32;0.70;99.90
54832;DHT22;40730;53.068;6.572;2023-02-10T06:10:58;0.60;99.90
54832;DHT22;40730;53.068;6.572;2023-02-10T06:13:24;0.60;99.90
54832;DHT22;40730;53.068;6.572;2023-02-10T06:15:49;0.60;99.90
54832;DHT22;40730;53.068;6.572;2023-02-10T06:18:15;0.60;99.90
54832;DHT22;40730;53.068;6.572;2023-02-10T06:20:40;0.60;99.90
54832;DHT22;40730;53.068;6.572;2023-02-10T06:23:06;0.60;99.90
54832;DHT22;40730;53.068;6.572;2023-02-10T06:25:32;0.50;99.90
54832;DHT22;40730;53.068;6.572;2023-02-10T06:28:01;0.50;99.90
54832;DHT22;40730;53.068;6.572;2023-02-10T06:30:27;0.50;99.90
54832;DHT22;40730;53.068;6.572;2023-02-10T06:32:53;0.50;99.90
54832;DHT22;40730;53.068;6.572;2023-02-10T06:35:18;0.50;99.90
54832;DHT22;40730;53.068;6.572;2023-02-10T06:37:44;0.50;99.90
54832;DHT22;40730;53.068;6.572;2023-02-10T06:40:10;0.50;99.90
54832;DHT22;40730;53.068;6.572;2023-02-10T06:42:36;0.50;99.90
54832;DHT22;40730;53.068;6.572;2023-02-10T06:45:02;0.40;99.90
54832;DHT22;40730;53.068;6.572;2023-02-10T06:47:28;0.40;99.90
54832;DHT22;40730;53.068;6.572;2023-02-10T06:49:54;0.40;99.90
54832;DHT22;40730;53.068;6.572;2023-02-10T06:52:19;0.30;99.90
54832;DHT22;40730;53.068;6.572;2023-02-10T06:54:45;0.30;99.90
54832;DHT22;40730;53.068;6.572;2023-02-10T06:57:10;0.30;99.90
54832;DHT22;40730;53.068;6.572;2023-02-10T06:59:36;0.30;99.90
54832;DHT22;40730;53.068;6.572;2023-02-10T07:02:02;0.30;99.90
54832;DHT22;40730;53.068;6.572;2023-02-10T07:04:28;0.30;99.90
54832;DHT22;40730;53.068;6.572;2023-02-10T07:06:54;0.20;99.90
54832;DHT22;40730;53.068;6.572;2023-02-10T07:09:20;0.20;99.90
54832;DHT22;40730;53.068;6.572;2023-02-10T07:11:45;0.30;99.90
54832;DHT22;40730;53.068;6.572;2023-02-10T07:14:11;0.30;99.90
54832;DHT22;40730;53.068;6.572;2023-02-10T07:16:37;0.30;99.90
54832;DHT22;40730;53.068;6.572;2023-02-10T07:19:02;0.30;99.90
54832;DHT22;40730;53.068;6.572;2023-02-10T07:21:28;0.30;99.90
54832;DHT22;40730;53.068;6.572;2023-02-10T07:23:54;0.30;99.90
54832;DHT22;40730;53.068;6.572;2023-02-10T07:26:19;0.40;99.90
54832;DHT22;40730;53.068;6.572;2023-02-10T07:28:46;0.40;99.90
54832;DHT22;40730;53.068;6.572;2023-02-10T07:31:12;0.40;99.90
54832;DHT22;40730;53.068;6.572;2023-02-10T07:33:37;0.40;99.90
54832;DHT22;40730;53.068;6.572;2023-02-10T07:36:04;0.50;99.90
54832;DHT22;40730;53.068;6.572;2023-02-10T07:38:30;0.50;99.90
54832;DHT22;40730;53.068;6.572;2023-02-10T07:40:56;0.50;99.90
54832;DHT22;40730;53.068;6.572;2023-02-10T07:43:22;0.50;99.90
54832;DHT22;40730;53.068;6.572;2023-02-10T07:45:47;0.50;99.90
54832;DHT22;40730;53.068;6.572;2023-02-10T07:48:16;0.50;99.90
54832;DHT22;40730;53.068;6.572;2023-02-10T07:50:42;0.60;99.90
54832;DHT22;40730;53.068;6.572;2023-02-10T07:53:07;0.70;99.90
54832;DHT22;40730;53.068;6.572;2023-02-10T07:55:33;0.70;99.90
54832;DHT22;40730;53.068;6.572;2023-02-10T07:57:59;0.80;99.90
54832;DHT22;40730;53.068;6.572;2023-02-10T08:00:25;0.90;99.90
54832;DHT22;40730;53.068;6.572;2023-02-10T08:02:50;1.00;99.90
54832;DHT22;40730;53.068;6.572;2023-02-10T08:05:16;1.10;99.90
54832;DHT22;40730;53.068;6.572;2023-02-10T08:07:42;1.10;99.90
54832;DHT22;40730;53.068;6.572;2023-02-10T08:10:07;1.10;99.90
54832;DHT22;40730;53.068;6.572;2023-02-10T08:12:33;1.30;99.90
54832;DHT22;40730;53.068;6.572;2023-02-10T08:14:59;1.30;99.90
54832;DHT22;40730;53.068;6.572;2023-02-10T08:17:24;1.50;99.90
54832;DHT22;40730;53.068;6.572;2023-02-10T08:19:50;1.60;99.90
54832;DHT22;40730;53.068;6.572;2023-02-10T08:22:15;1.80;99.90
54832;DHT22;40730;53.068;6.572;2023-02-10T08:24:41;2.00;99.90
54832;DHT22;40730;53.068;6.572;2023-02-10T08:27:07;2.10;99.90
54832;DHT22;40730;53.068;6.572;2023-02-10T08:29:33;2.20;99.90
54832;DHT22;40730;53.068;6.572;2023-02-10T08:31:58;2.40;99.90
54832;DHT22;40730;53.068;6.572;2023-02-10T08:34:24;2.50;99.90
54832;DHT22;40730;53.068;6.572;2023-02-10T08:36:49;2.60;99.90
54832;DHT22;40730;53.068;6.572;2023-02-10T08:39:15;2.60;99.90
54832;DHT22;40730;53.068;6.572;2023-02-10T08:41:41;2.60;99.90
54832;DHT22;40730;53.068;6.572;2023-02-10T08:44:07;2.60;99.90
54832;DHT22;40730;53.068;6.572;2023-02-10T08:46:34;2.60;99.90
54832;DHT22;40730;53.068;6.572;2023-02-10T08:49:00;2.70;99.90
54832;DHT22;40730;53.068;6.572;2023-02-10T08:51:27;2.70;99.90
54832;DHT22;40730;53.068;6.572;2023-02-10T08:53:53;2.80;99.90
54832;DHT22;40730;53.068;6.572;2023-02-10T08:56:21;2.70;99.90
54832;DHT22;40730;53.068;6.572;2023-02-10T08:58:47;2.80;99.90
54832;DHT22;40730;53.068;6.572;2023-02-10T09:01:15;2.80;99.90
54832;DHT22;40730;53.068;6.572;2023-02-10T09:03:42;2.80;99.90
54832;DHT22;40730;53.068;6.572;2023-02-10T09:06:20;2.70;99.90
54832;DHT22;40730;53.068;6.572;2023-02-10T09:08:47;2.80;99.90
54832;DHT22;40730;53.068;6.572;2023-02-10T09:11:16;2.80;99.90
54832;DHT22;40730;53.068;6.572;2023-02-10T09:13:42;2.90;99.90
54832;DHT22;40730;53.068;6.572;2023-02-10T09:16:08;3.00;99.90
54832;DHT22;40730;53.068;6.572;2023-02-10T09:18:33;3.00;99.90
54832;DHT22;40730;53.068;6.572;2023-02-10T09:21:00;3.80;99.90
54832;DHT22;40730;53.068;6.572;2023-02-10T09:23:26;3.80;99.90
54832;DHT22;40730;53.068;6.572;2023-02-10T09:25:56;3.30;99.90
54832;DHT22;40730;53.068;6.572;2023-02-10T09:28:23;3.30;99.90
54832;DHT22;40730;53.068;6.572;2023-02-10T09:30:48;3.40;99.90
54832;DHT22;40730;53.068;6.572;2023-02-10T09:33:15;3.50;99.90
54832;DHT22;40730;53.068;6.572;2023-02-10T09:35:41;3.60;99.90
54832;DHT22;40730;53.068;6.572;2023-02-10T09:38:08;3.60;99.90
54832;DHT22;40730;53.068;6.572;2023-02-10T09:40:42;3.70;99.90
54832;DHT22;40730;53.068;6.572;2023-02-10T09:49:45;4.10;99.90
54832;DHT22;40730;53.068;6.572;2023-02-10T09:55:15;4.60;99.90
54832;DHT22;40730;53.068;6.572;2023-02-10T09:57:45;4.80;99.90
54832;DHT22;40730;53.068;6.572;2023-02-10T10:02:52;4.90;99.90
54832;DHT22;40730;53.068;6.572;2023-02-10T10:08:34;5.00;99.90
54832;DHT22;40730;53.068;6.572;2023-02-10T10:11:22;5.10;99.90
54832;DHT22;40730;53.068;6.572;2023-02-10T10:13:48;5.20;99.90
54832;DHT22;40730;53.068;6.572;2023-02-10T10:21:51;5.50;99.90
54832;DHT22;40730;53.068;6.572;2023-02-10T10:24:34;5.50;99.90
54832;DHT22;40730;53.068;6.572;2023-02-10T10:27:27;5.70;99.90
54832;DHT22;40730;53.068;6.572;2023-02-10T10:30:02;5.80;99.90
54832;DHT22;40730;53.068;6.572;2023-02-10T10:32:45;5.90;99.90
54832;DHT22;40730;53.068;6.572;2023-02-10T10:35:21;5.90;99.90
54832;DHT22;40730;53.068;6.572;2023-02-10T10:37:50;6.00;99.90
54832;DHT22;40730;53.068;6.572;2023-02-10T10:40:29;6.00;99.90
54832;DHT22;40730;53.068;6.572;2023-02-10T10:42:58;6.10;99.90
54832;DHT22;40730;53.068;6.572;2023-02-10T10:45:46;6.30;99.90
54832;DHT22;40730;53.068;6.572;2023-02-10T10:48:19;6.50;99.90
54832;DHT22;40730;53.068;6.572;2023-02-10T10:50:50;6.80;99.90
54832;DHT22;40730;53.068;6.572;2023-02-10T10:53:33;6.70;99.90
54832;DHT22;40730;53.068;6.572;2023-02-10T10:56:02;6.80;99.90
54832;DHT22;40730;53.068;6.572;2023-02-10T10:58:35;6.80;99.90
54832;DHT22;40730;53.068;6.572;2023-02-10T11:01:01;6.80;99.90
54832;DHT22;40730;53.068;6.572;2023-02-10T11:03:28;6.70;99.90
54832;DHT22;40730;53.068;6.572;2023-02-10T11:06:14;7.20;99.90
54832;DHT22;40730;53.068;6.572;2023-02-10T11:08:56;7.10;99.90
54832;DHT22;40730;53.068;6.572;2023-02-10T11:11:40;7.90;99.90
54832;DHT22;40730;53.068;6.572;2023-02-10T11:14:39;8.20;99.90
54832;DHT22;40730;53.068;6.572;2023-02-10T11:17:23;8.70;99.90
54832;DHT22;40730;53.068;6.572;2023-02-10T11:20:02;8.90;99.90
54832;DHT22;40730;53.068;6.572;2023-02-10T11:22:28;9.30;99.90
54832;DHT22;40730;53.068;6.572;2023-02-10T11:25:00;9.90;99.90
54832;DHT22;40730;53.068;6.572;2023-02-10T11:27:26;10.40;99.90
54832;DHT22;40730;53.068;6.572;2023-02-10T11:29:56;10.90;99.90
54832;DHT22;40730;53.068;6.572;2023-02-10T11:32:32;11.50;99.90
54832;DHT22;40730;53.068;6.572;2023-02-10T11:35:04;11.80;99.90
54832;DHT22;40730;53.068;6.572;2023-02-10T11:37:33;12.00;99.90
54832;DHT22;40730;53.068;6.572;2023-02-10T11:40:04;12.30;99.90
54832;DHT22;40730;53.068;6.572;2023-02-10T11:42:33;12.60;99.90
54832;DHT22;40730;53.068;6.572;2023-02-10T11:45:17;12.60;99.90
54832;DHT22;40730;53.068;6.572;2023-02-10T11:47:43;12.80;99.90
54832;DHT22;40730;53.068;6.572;2023-02-10T11:50:23;12.60;99.90
54832;DHT22;40730;53.068;6.572;2023-02-10T11:52:49;12.70;99.90
54832;DHT22;40730;53.068;6.572;2023-02-10T11:55:15;12.60;99.90
54832;DHT22;40730;53.068;6.572;2023-02-10T12:00:57;11.80;99.90
54832;DHT22;40730;53.068;6.572;2023-02-10T12:06:37;10.80;99.90
54832;DHT22;40730;53.068;6.572;2023-02-10T12:09:16;11.10;99.90
54832;DHT22;40730;53.068;6.572;2023-02-10T12:12:21;11.40;99.90
54832;DHT22;40730;53.068;6.572;2023-02-10T12:17:36;11.40;99.90
54832;DHT22;40730;53.068;6.572;2023-02-10T12:23:18;11.70;99.90
54832;DHT22;40730;53.068;6.572;2023-02-10T12:31:28;12.00;99.90
54832;DHT22;40730;53.068;6.572;2023-02-10T12:44:56;9.30;99.90
54832;DHT22;40730;53.068;6.572;2023-02-10T12:53:02;8.80;99.90
54832;DHT22;40730;53.068;6.572;2023-02-10T12:58:16;8.90;99.90
54832;DHT22;40730;53.068;6.572;2023-02-10T13:01:00;9.20;99.90
54832;DHT22;40730;53.068;6.572;2023-02-10T13:03:32;9.50;99.90
54832;DHT22;40730;53.068;6.572;2023-02-10T13:06:25;9.70;99.90
54832;DHT22;40730;53.068;6.572;2023-02-10T13:14:43;10.40;99.90
54832;DHT22;40730;53.068;6.572;2023-02-10T13:17:10;10.50;99.90
54832;DHT22;40730;53.068;6.572;2023-02-10T13:19:49;10.60;99.90
54832;DHT22;40730;53.068;6.572;2023-02-10T13:22:24;10.40;99.90
54832;DHT22;40730;53.068;6.572;2023-02-10T13:30:42;10.20;99.90
54832;DHT22;40730;53.068;6.572;2023-02-10T13:35:40;10.50;99.90
54832;DHT22;40730;53.068;6.572;2023-02-10T13:38:09;10.70;99.90
54832;DHT22;40730;53.068;6.572;2023-02-10T13:40:49;10.30;99.90
54832;DHT22;40730;53.068;6.572;2023-02-10T13:43:31;9.90;99.90
54832;DHT22;40730;53.068;6.572;2023-02-10T13:45:59;9.70;99.90
54832;DHT22;40730;53.068;6.572;2023-02-10T13:48:28;9.90;99.90
54832;DHT22;40730;53.068;6.572;2023-02-10T13:51:08;10.30;99.90
54832;DHT22;40730;53.068;6.572;2023-02-10T13:59:00;10.90;99.90
54832;DHT22;40730;53.068;6.572;2023-02-10T14:01:36;10.50;99.90
54832;DHT22;40730;53.068;6.572;2023-02-10T14:04:53;10.40;99.90
54832;DHT22;40730;53.068;6.572;2023-02-10T14:06:53;10.30;99.90
54832;DHT22;40730;53.068;6.572;2023-02-10T14:11:55;10.00;99.90
54832;DHT22;40730;53.068;6.572;2023-02-10T14:14:33;9.80;99.90
54832;DHT22;40730;53.068;6.572;2023-02-10T14:17:17;9.60;99.90
54832;DHT22;40730;53.068;6.572;2023-02-10T14:19:47;9.60;99.90
54832;DHT22;40730;53.068;6.572;2023-02-10T14:24:50;9.90;99.90
54832;DHT22;40730;53.068;6.572;2023-02-10T14:27:18;9.80;99.90
54832;DHT22;40730;53.068;6.572;2023-02-10T14:29:51;9.80;99.90
54832;DHT22;40730;53.068;6.572;2023-02-10T14:32:17;9.60;99.90
54832;DHT22;40730;53.068;6.572;2023-02-10T14:35:00;9.50;99.90
54832;DHT22;40730;53.068;6.572;2023-02-10T14:37:26;9.20;99.90
54832;DHT22;40730;53.068;6.572;2023-02-10T14:39:55;9.00;99.90
54832;DHT22;40730;53.068;6.572;2023-02-10T14:42:22;8.90;99.90
54832;DHT22;40730;53.068;6.572;2023-02-10T14:44:51;8.80;99.90
54832;DHT22;40730;53.068;6.572;2023-02-10T14:47:21;8.70;99.90
54832;DHT22;40730;53.068;6.572;2023-02-10T14:49:54;8.50;99.90
54832;DHT22;40730;53.068;6.572;2023-02-10T14:52:35;8.50;99.90
54832;DHT22;40730;53.068;6.572;2023-02-10T14:55:17;8.40;99.90
54832;DHT22;40730;53.068;6.572;2023-02-10T14:57:46;8.30;99.90
54832;DHT22;40730;53.068;6.572;2023-02-10T15:00:12;8.20;99.90
54832;DHT22;40730;53.068;6.572;2023-02-10T15:02:38;8.10;99.90
54832;DHT22;40730;53.068;6.572;2023-02-10T15:05:07;7.90;99.90
54832;DHT22;40730;53.068;6.572;2023-02-10T15:07:38;7.80;99.90
54832;DHT22;40730;53.068;6.572;2023-02-10T15:10:25;7.80;99.90
54832;DHT22;40730;53.068;6.572;2023-02-10T15:12:51;7.70;99.90
54832;DHT22;40730;53.068;6.572;2023-02-10T15:18:04;7.50;99.90
54832;DHT22;40730;53.068;6.572;2023-02-10T15:20:32;7.40;99.90
54832;DHT22;40730;53.068;6.572;2023-02-10T15:30:45;7.20;99.90
54832;DHT22;40730;53.068;6.572;2023-02-10T15:33:18;7.10;99.90
54832;DHT22;40730;53.068;6.572;2023-02-10T15:36:02;7.10;99.90
54832;DHT22;40730;53.068;6.572;2023-02-10T15:38:29;7.00;99.90
54832;DHT22;40730;53.068;6.572;2023-02-10T15:40:56;7.00;99.90
54832;DHT22;40730;53.068;6.572;2023-02-10T15:43:30;6.90;99.90
54832;DHT22;40730;53.068;6.572;2023-02-10T15:46:12;6.80;99.90
54832;DHT22;40730;53.068;6.572;2023-02-10T15:48:40;6.70;99.90
54832;DHT22;40730;53.068;6.572;2023-02-10T15:51:09;6.70;99.90
54832;DHT22;40730;53.068;6.572;2023-02-10T15:53:40;6.60;99.90
54832;DHT22;40730;53.068;6.572;2023-02-10T15:56:06;6.60;99.90
54832;DHT22;40730;53.068;6.572;2023-02-10T15:58:31;6.50;99.90
54832;DHT22;40730;53.068;6.572;2023-02-10T16:00:57;6.40;99.90
54832;DHT22;40730;53.068;6.572;2023-02-10T16:03:23;6.40;99.90
54832;DHT22;40730;53.068;6.572;2023-02-10T16:05:48;6.40;99.90
54832;DHT22;40730;53.068;6.572;2023-02-10T16:08:21;6.40;99.90
54832;DHT22;40730;53.068;6.572;2023-02-10T16:10:48;6.40;99.90
54832;DHT22;40730;53.068;6.572;2023-02-10T16:13:15;6.30;99.90
54832;DHT22;40730;53.068;6.572;2023-02-10T16:15:42;6.20;99.90
54832;DHT22;40730;53.068;6.572;2023-02-10T16:18:11;6.30;99.90
54832;DHT22;40730;53.068;6.572;2023-02-10T16:20:37;6.20;99.90
54832;DHT22;40730;53.068;6.572;2023-02-10T16:23:08;6.20;99.90
54832;DHT22;40730;53.068;6.572;2023-02-10T16:25:34;6.20;99.90
54832;DHT22;40730;53.068;6.572;2023-02-10T16:27:59;6.30;99.90
54832;DHT22;40730;53.068;6.572;2023-02-10T16:30:27;6.20;99.90
54832;DHT22;40730;53.068;6.572;2023-02-10T16:32:54;6.30;99.90
54832;DHT22;40730;53.068;6.572;2023-02-10T16:35:20;6.30;99.90
54832;DHT22;40730;53.068;6.572;2023-02-10T16:37:46;6.30;99.90
54832;DHT22;40730;53.068;6.572;2023-02-10T16:40:21;6.30;99.90
54832;DHT22;40730;53.068;6.572;2023-02-10T16:42:49;6.20;99.90
54832;DHT22;40730;53.068;6.572;2023-02-10T16:45:14;6.20;99.90
54832;DHT22;40730;53.068;6.572;2023-02-10T16:47:40;6.20;99.90
54832;DHT22;40730;53.068;6.572;2023-02-10T16:50:07;6.10;99.90
54832;DHT22;40730;53.068;6.572;2023-02-10T16:52:41;6.00;99.90
54832;DHT22;40730;53.068;6.572;2023-02-10T16:55:06;5.90;99.90
54832;DHT22;40730;53.068;6.572;2023-02-10T16:57:32;5.80;99.90
54832;DHT22;40730;53.068;6.572;2023-02-10T16:59:58;5.70;99.90
54832;DHT22;40730;53.068;6.572;2023-02-10T17:02:23;5.60;99.90
54832;DHT22;40730;53.068;6.572;2023-02-10T17:04:49;5.60;99.90
54832;DHT22;40730;53.068;6.572;2023-02-10T17:07:14;5.50;99.90
54832;DHT22;40730;53.068;6.572;2023-02-10T17:09:41;5.40;99.90
54832;DHT22;40730;53.068;6.572;2023-02-10T17:12:06;5.30;99.90
54832;DHT22;40730;53.068;6.572;2023-02-10T17:14:32;5.30;99.90
54832;DHT22;40730;53.068;6.572;2023-02-10T17:16:58;5.30;99.90
54832;DHT22;40730;53.068;6.572;2023-02-10T17:19:23;5.30;99.90
54832;DHT22;40730;53.068;6.572;2023-02-10T17:21:52;5.30;99.90
54832;DHT22;40730;53.068;6.572;2023-02-10T17:24:24;5.30;99.90
54832;DHT22;40730;53.068;6.572;2023-02-10T17:26:59;5.10;99.90
54832;DHT22;40730;53.068;6.572;2023-02-10T17:29:25;5.40;99.90
54832;DHT22;40730;53.068;6.572;2023-02-10T17:31:51;5.40;99.90
54832;DHT22;40730;53.068;6.572;2023-02-10T17:34:16;5.40;99.90
54832;DHT22;40730;53.068;6.572;2023-02-10T17:36:44;5.40;99.90
54832;DHT22;40730;53.068;6.572;2023-02-10T17:39:16;5.40;99.90
54832;DHT22;40730;53.068;6.572;2023-02-10T17:41:51;5.50;99.90
54832;DHT22;40730;53.068;6.572;2023-02-10T17:44:17;5.60;99.90
54832;DHT22;40730;53.068;6.572;2023-02-10T17:46:43;5.70;99.90
54832;DHT22;40730;53.068;6.572;2023-02-10T17:49:13;5.80;99.90
54832;DHT22;40730;53.068;6.572;2023-02-10T17:51:39;5.70;99.90
54832;DHT22;40730;53.068;6.572;2023-02-10T17:54:05;5.80;99.90